createdAt,value
2023-04-25T00:02:09.838Z,100.00
2023-04-25T00:04:36.737Z,100.00
2023-04-25T00:07:03.837Z,100.00
2023-04-25T00:09:30.791Z,100.00
2023-04-25T00:11:57.486Z,100.00
2023-04-25T00:14:24.100Z,100.00
2023-04-25T00:16:50.727Z,100.00
2023-04-25T00:19:17.342Z,100.00
2023-04-25T00:21:44.105Z,100.00
2023-04-25T00:24:10.736Z,100.00
2023-04-25T00:26:37.562Z,100.00
2023-04-25T00:29:04.350Z,100.00
2023-04-25T00:31:31.722Z,100.00
2023-04-25T00:33:58.333Z,100.00
2023-04-25T00:36:24.946Z,100.00
2023-04-25T00:38:51.647Z,100.00
2023-04-25T00:41:18.292Z,100.00
2023-04-25T00:43:47.195Z,100.00
2023-04-25T00:46:14.127Z,100.00
2023-04-25T00:48:40.871Z,100.00
2023-04-25T00:51:07.751Z,100.00
2023-04-25T00:53:34.498Z,100.00
2023-04-25T00:56:01.232Z,100.00
2023-04-25T00:58:28.033Z,100.00
2023-04-25T01:00:54.879Z,100.00
2023-04-25T01:03:21.990Z,100.00
2023-04-25T01:05:49.253Z,100.00
2023-04-25T01:08:15.993Z,100.00
2023-04-25T01:10:42.852Z,100.00
2023-04-25T01:13:10.000Z,100.00
2023-04-25T01:15:36.764Z,100.00
2023-04-25T01:18:04.737Z,100.00
2023-04-25T01:20:33.273Z,100.00
2023-04-25T01:23:00.210Z,100.00
2023-04-25T01:25:27.191Z,100.00
2023-04-25T01:27:54.114Z,100.00
2023-04-25T01:30:21.179Z,100.00
2023-04-25T01:32:48.726Z,100.00
2023-04-25T01:35:15.387Z,100.00
2023-04-25T01:37:43.923Z,100.00
2023-04-25T01:40:11.730Z,100.00
2023-04-25T01:42:43.860Z,100.00
2023-04-25T01:45:11.498Z,100.00
2023-04-25T01:47:39.730Z,100.00
2023-04-25T01:50:08.231Z,100.00
2023-04-25T01:52:35.126Z,100.00
2023-04-25T01:55:03.393Z,100.00
2023-04-25T01:57:30.147Z,100.00
2023-04-25T02:00:00.987Z,100.00
2023-04-25T02:02:27.917Z,100.00
2023-04-25T02:04:54.684Z,100.00
2023-04-25T02:07:21.909Z,100.00
2023-04-25T02:09:48.784Z,100.00
2023-04-25T02:12:15.439Z,100.00
2023-04-25T02:14:42.178Z,100.00
2023-04-25T02:17:09.031Z,100.00
2023-04-25T02:19:36.172Z,100.00
2023-04-25T02:22:02.901Z,100.00
2023-04-25T02:24:29.604Z,100.00
2023-04-25T02:26:56.181Z,100.00
2023-04-25T02:29:23.954Z,100.00
2023-04-25T02:31:50.896Z,100.00
2023-04-25T02:34:17.780Z,100.00
2023-04-25T02:36:44.536Z,100.00
2023-04-25T02:39:11.192Z,100.00
2023-04-25T02:41:40.963Z,100.00
2023-04-25T02:44:07.576Z,100.00
2023-04-25T02:46:39.599Z,100.00
2023-04-25T02:49:07.457Z,100.00
2023-04-25T02:51:34.126Z,100.00
2023-04-25T02:54:00.818Z,100.00
2023-04-25T02:56:27.594Z,100.00
2023-04-25T02:58:54.961Z,100.00
2023-04-25T03:01:21.752Z,99.97
2023-04-25T03:03:48.647Z,97.58
2023-04-25T03:06:15.544Z,99.31
2023-04-25T03:08:42.251Z,99.52
2023-04-25T03:11:08.908Z,96.80
2023-04-25T03:13:35.586Z,98.01
2023-04-25T03:16:02.338Z,96.53
2023-04-25T03:18:29.016Z,98.38
2023-04-25T03:20:55.809Z,97.96
2023-04-25T03:23:22.516Z,97.63
2023-04-25T03:25:49.202Z,99.44
2023-04-25T03:28:16.048Z,100.00
2023-04-25T03:30:42.653Z,99.88
2023-04-25T03:33:09.261Z,100.00
2023-04-25T03:35:35.953Z,100.00
2023-04-25T03:38:02.586Z,100.00
2023-04-25T03:40:29.214Z,99.27
2023-04-25T03:42:55.817Z,100.00
2023-04-25T03:45:22.533Z,100.00
2023-04-25T03:47:49.192Z,100.00
2023-04-25T03:50:15.852Z,100.00
2023-04-25T03:52:42.463Z,100.00
2023-04-25T03:55:09.720Z,99.69
2023-04-25T03:57:36.285Z,99.91
2023-04-25T04:00:03.351Z,100.00
2023-04-25T04:02:30.136Z,100.00
2023-04-25T04:04:57.236Z,100.00
2023-04-25T04:07:26.851Z,100.00
2023-04-25T04:09:53.507Z,100.00
2023-04-25T04:12:20.203Z,100.00
2023-04-25T04:14:46.795Z,100.00
2023-04-25T04:17:16.097Z,100.00
2023-04-25T04:19:42.692Z,100.00
2023-04-25T04:22:09.346Z,100.00
2023-04-25T04:24:36.139Z,100.00
2023-04-25T04:27:02.876Z,100.00
2023-04-25T04:29:29.618Z,100.00
2023-04-25T04:31:56.629Z,100.00
2023-04-25T04:34:23.483Z,100.00
2023-04-25T04:36:50.190Z,100.00
2023-04-25T04:39:16.980Z,100.00
2023-04-25T04:41:43.619Z,100.00
2023-04-25T04:44:10.258Z,100.00
2023-04-25T04:46:36.937Z,100.00
2023-04-25T04:49:03.598Z,100.00
2023-04-25T04:51:30.296Z,100.00
2023-04-25T04:53:57.040Z,100.00
2023-04-25T04:56:23.686Z,100.00
2023-04-25T04:58:50.305Z,100.00
2023-04-25T05:01:17.010Z,100.00
2023-04-25T05:03:43.863Z,100.00
2023-04-25T05:06:10.941Z,100.00
2023-04-25T05:08:37.838Z,100.00
2023-04-25T05:11:04.621Z,100.00
2023-04-25T05:13:31.554Z,100.00
2023-04-25T05:15:58.416Z,100.00
2023-04-25T05:18:25.121Z,100.00
2023-04-25T05:20:51.709Z,100.00
2023-04-25T05:23:18.510Z,100.00
2023-04-25T05:25:45.204Z,100.00
2023-04-25T05:28:14.083Z,100.00
2023-04-25T05:30:40.713Z,100.00
2023-04-25T05:33:07.350Z,100.00
2023-04-25T05:35:34.131Z,100.00
2023-04-25T05:38:00.830Z,100.00
2023-04-25T05:40:27.563Z,100.00
2023-04-25T05:42:54.204Z,100.00
2023-04-25T05:45:20.902Z,100.00
2023-04-25T05:47:47.604Z,100.00
2023-04-25T05:50:14.219Z,100.00
2023-04-25T05:52:40.906Z,100.00
2023-04-25T05:55:07.873Z,100.00
2023-04-25T05:57:34.647Z,100.00
2023-04-25T06:00:01.595Z,100.00
2023-04-25T06:02:28.394Z,100.00
2023-04-25T06:04:55.693Z,100.00
2023-04-25T06:07:22.482Z,100.00
2023-04-25T06:09:50.272Z,100.00
2023-04-25T06:12:16.894Z,100.00
2023-04-25T06:14:43.540Z,100.00
2023-04-25T06:17:10.357Z,100.00
2023-04-25T06:19:37.420Z,100.00
2023-04-25T06:22:04.243Z,100.00
2023-04-25T06:24:30.872Z,100.00
2023-04-25T06:26:57.536Z,100.00
2023-04-25T06:29:24.257Z,100.00
2023-04-25T06:31:50.998Z,100.00
2023-04-25T06:34:17.740Z,100.00
2023-04-25T06:36:44.499Z,100.00
2023-04-25T06:39:12.019Z,100.00
2023-04-25T06:41:38.685Z,100.00
2023-04-25T06:44:05.362Z,100.00
2023-04-25T06:46:32.075Z,100.00
2023-04-25T06:48:58.704Z,100.00
2023-04-25T06:51:25.503Z,100.00
2023-04-25T06:53:52.211Z,100.00
2023-04-25T06:56:18.896Z,100.00
2023-04-25T06:58:45.598Z,100.00
2023-04-25T07:01:12.312Z,100.00
2023-04-25T07:03:39.136Z,100.00
2023-04-25T07:06:06.053Z,100.00
2023-04-25T07:08:32.768Z,100.00
2023-04-25T07:10:59.360Z,100.00
2023-04-25T07:13:25.985Z,100.00
2023-04-25T07:15:52.663Z,100.00
2023-04-25T07:18:19.330Z,100.00
2023-04-25T07:20:45.981Z,100.00
2023-04-25T07:23:12.670Z,100.00
2023-04-25T07:25:39.323Z,100.00
2023-04-25T07:28:05.955Z,100.00
2023-04-25T07:30:32.614Z,100.00
2023-04-25T07:32:59.268Z,100.00
2023-04-25T07:35:25.956Z,100.00
2023-04-25T07:37:52.723Z,100.00
2023-04-25T07:40:19.555Z,100.00
2023-04-25T07:42:46.189Z,100.00
2023-04-25T07:45:12.828Z,100.00
2023-04-25T07:47:39.510Z,100.00
2023-04-25T07:50:06.759Z,100.00
2023-04-25T07:52:33.487Z,100.00
2023-04-25T07:55:00.109Z,100.00
2023-04-25T07:57:27.006Z,100.00
2023-04-25T07:59:53.630Z,100.00
2023-04-25T08:02:20.285Z,100.00
2023-04-25T08:04:47.099Z,100.00
2023-04-25T08:07:13.959Z,100.00
2023-04-25T08:09:40.721Z,100.00
2023-04-25T08:12:07.425Z,100.00
2023-04-25T08:14:34.053Z,100.00
2023-04-25T08:17:00.736Z,100.00
2023-04-25T08:19:27.369Z,100.00
2023-04-25T08:21:53.996Z,100.00
2023-04-25T08:24:20.727Z,100.00
2023-04-25T08:26:47.529Z,100.00
2023-04-25T08:29:14.292Z,100.00
2023-04-25T08:31:41.047Z,100.00
2023-04-25T08:34:07.726Z,100.00
2023-04-25T08:36:39.675Z,97.04
2023-04-25T08:39:07.172Z,100.00
2023-04-25T08:41:33.797Z,100.00
2023-04-25T08:44:00.802Z,99.81
2023-04-25T08:46:28.312Z,95.39
2023-04-25T08:49:02.155Z,95.93
2023-04-25T08:51:33.387Z,96.47
2023-04-25T08:56:48.896Z,96.32
2023-04-25T08:59:15.806Z,95.89
2023-04-25T09:01:42.581Z,91.82
2023-04-25T09:04:09.334Z,95.68
2023-04-25T09:06:37.021Z,97.15
2023-04-25T09:09:05.741Z,93.53
2023-04-25T09:11:33.677Z,94.77
2023-04-25T09:14:16.198Z,93.75
2023-04-25T09:17:00.711Z,95.62
2023-04-25T09:19:39.557Z,91.56
2023-04-25T09:22:08.637Z,93.05
2023-04-25T09:24:45.170Z,95.39
2023-04-25T09:27:14.868Z,89.79
2023-04-25T09:29:42.160Z,89.34
2023-04-25T09:32:21.122Z,88.19
2023-04-25T09:34:50.553Z,86.48
2023-04-25T09:37:24.907Z,88.44
2023-04-25T09:39:56.853Z,86.79
2023-04-25T09:42:25.393Z,88.62
2023-04-25T09:44:56.680Z,88.13
2023-04-25T09:47:25.645Z,85.77
2023-04-25T09:49:53.519Z,85.71
2023-04-25T09:52:26.103Z,83.43
2023-04-25T09:54:53.460Z,84.54
2023-04-25T09:57:21.119Z,81.75
2023-04-25T09:59:49.831Z,82.99
2023-04-25T10:02:22.236Z,82.01
2023-04-25T10:04:51.400Z,79.54
2023-04-25T10:07:24.057Z,80.67
2023-04-25T10:09:56.382Z,81.30
2023-04-25T10:12:23.112Z,80.81
2023-04-25T10:14:50.137Z,79.85
2023-04-25T10:17:18.487Z,76.02
2023-04-25T10:19:45.787Z,75.30
2023-04-25T10:22:27.541Z,79.78
2023-04-25T10:24:54.788Z,78.49
2023-04-25T10:27:21.572Z,77.90
2023-04-25T10:30:17.077Z,79.03
2023-04-25T10:32:44.696Z,79.49
2023-04-25T10:35:26.784Z,79.48
2023-04-25T10:38:00.374Z,78.35
2023-04-25T10:40:27.888Z,77.85
2023-04-25T10:42:55.321Z,80.56
2023-04-25T10:45:22.137Z,79.28
2023-04-25T10:47:49.110Z,77.86
2023-04-25T10:50:16.677Z,75.73
2023-04-25T10:52:43.585Z,78.75
2023-04-25T10:55:10.423Z,77.34
2023-04-25T10:57:45.222Z,76.40
2023-04-25T11:00:15.485Z,75.60
2023-04-25T11:02:48.107Z,76.63
2023-04-25T11:05:36.318Z,76.73
2023-04-25T11:08:12.463Z,74.25
2023-04-25T11:10:41.160Z,73.29
2023-04-25T11:13:07.847Z,74.00
2023-04-25T11:15:34.555Z,72.94
2023-04-25T11:18:02.003Z,73.91
2023-04-25T11:20:28.958Z,74.70
2023-04-25T11:22:58.765Z,74.22
2023-04-25T11:25:25.508Z,68.44
2023-04-25T11:27:57.687Z,71.33
2023-04-25T11:30:26.841Z,71.76
2023-04-25T11:32:54.016Z,68.30
2023-04-25T11:35:21.344Z,73.55
2023-04-25T11:37:48.098Z,70.23
2023-04-25T11:40:15.111Z,72.00
2023-04-25T11:42:46.890Z,69.00
2023-04-25T11:45:14.444Z,67.50
2023-04-25T11:47:41.258Z,67.81
2023-04-25T11:50:09.498Z,69.19
2023-04-25T11:52:36.852Z,67.12
2023-04-25T11:55:09.916Z,67.27
2023-04-25T11:57:42.312Z,66.92
2023-04-25T12:00:12.969Z,64.88
2023-04-25T12:02:57.556Z,65.73
2023-04-25T12:05:34.278Z,66.60
2023-04-25T12:08:12.377Z,65.52
2023-04-25T12:10:40.561Z,63.99
2023-04-25T12:13:25.001Z,64.79
2023-04-25T12:15:51.889Z,64.93
2023-04-25T12:18:22.255Z,64.53
2023-04-25T12:20:48.910Z,63.82
2023-04-25T12:23:15.688Z,65.15
2023-04-25T12:25:44.696Z,62.68
2023-04-25T12:28:23.040Z,59.79
2023-04-25T12:31:01.662Z,60.29
2023-04-25T12:33:37.100Z,60.52
2023-04-25T12:36:06.580Z,61.65
2023-04-25T12:38:38.210Z,62.51
2023-04-25T12:41:04.899Z,60.77
2023-04-25T12:43:31.533Z,58.67
2023-04-25T12:45:58.234Z,58.66
2023-04-25T12:48:25.568Z,59.86
2023-04-25T12:50:53.051Z,59.34
2023-04-25T12:53:21.555Z,56.28
2023-04-25T12:55:48.796Z,56.00
2023-04-25T12:58:16.091Z,55.61
2023-04-25T13:00:42.911Z,53.43
2023-04-25T13:03:10.076Z,55.64
2023-04-25T13:05:36.865Z,54.95
2023-04-25T13:08:04.101Z,51.50
2023-04-25T13:10:31.024Z,53.68
2023-04-25T13:12:57.668Z,53.80
2023-04-25T13:15:24.366Z,49.26
2023-04-25T13:17:51.107Z,49.28
2023-04-25T13:20:17.794Z,51.59
2023-04-25T13:22:44.469Z,51.77
2023-04-25T13:25:11.120Z,52.37
2023-04-25T13:27:38.517Z,50.54
2023-04-25T13:30:05.975Z,51.02
2023-04-25T13:32:32.663Z,49.08
2023-04-25T13:34:59.293Z,49.98
2023-04-25T13:37:25.907Z,49.23
2023-04-25T13:39:52.850Z,50.24
2023-04-25T13:42:19.765Z,52.27
2023-04-25T13:44:46.420Z,48.72
2023-04-25T13:47:13.313Z,48.51
2023-04-25T13:49:39.982Z,50.62
2023-04-25T13:52:06.693Z,50.39
2023-04-25T13:54:33.351Z,50.19
2023-04-25T13:57:00.167Z,49.37
2023-04-25T13:59:27.981Z,46.99
2023-04-25T14:01:54.912Z,47.27
2023-04-25T14:04:21.759Z,46.59
2023-04-25T14:06:48.426Z,48.47
2023-04-25T14:09:15.052Z,44.45
2023-04-25T14:11:41.727Z,43.52
2023-04-25T14:14:08.430Z,43.30
2023-04-25T14:16:35.301Z,44.18
2023-04-25T14:19:02.289Z,44.06
2023-04-25T14:21:30.737Z,43.81
2023-04-25T14:23:57.381Z,41.98
2023-04-25T14:26:24.036Z,43.78
2023-04-25T14:28:52.168Z,43.66
2023-04-25T14:31:18.801Z,45.53
2023-04-25T14:33:45.586Z,44.08
2023-04-25T14:36:12.232Z,43.70
2023-04-25T14:38:38.890Z,47.11
2023-04-25T14:41:05.576Z,45.61
2023-04-25T14:43:32.210Z,43.42
2023-04-25T14:45:59.054Z,44.05
2023-04-25T14:48:25.937Z,45.18
2023-04-25T14:50:52.714Z,43.49
2023-04-25T14:53:19.395Z,44.23
2023-04-25T14:55:46.003Z,45.16
2023-04-25T14:58:12.869Z,42.05
2023-04-25T15:00:39.872Z,43.42
2023-04-25T15:03:06.656Z,45.08
2023-04-25T15:05:33.501Z,45.55
2023-04-25T15:08:00.161Z,45.71
2023-04-25T15:10:27.108Z,42.26
2023-04-25T15:12:53.776Z,45.23
2023-04-25T15:17:52.118Z,43.34
2023-04-25T15:20:18.848Z,43.17
2023-04-25T15:22:45.754Z,43.23
2023-04-25T15:25:12.930Z,45.54
2023-04-25T15:27:40.154Z,46.24
2023-04-25T15:30:07.927Z,44.32
2023-04-25T15:32:35.438Z,45.91
2023-04-25T15:35:05.352Z,46.49
2023-04-25T15:37:32.452Z,46.90
2023-04-25T15:40:15.128Z,46.29
2023-04-25T15:42:44.496Z,47.94
2023-04-25T15:45:11.840Z,46.01
2023-04-25T15:47:40.206Z,46.25
2023-04-25T15:50:09.108Z,46.59
2023-04-25T15:52:37.509Z,44.63
2023-04-25T15:55:05.626Z,45.20
2023-04-25T15:57:34.618Z,47.41
2023-04-25T16:00:05.823Z,47.03
2023-04-25T16:02:32.708Z,46.92
2023-04-25T16:04:59.631Z,47.07
2023-04-25T16:07:26.415Z,48.26
2023-04-25T16:09:53.019Z,48.42
2023-04-25T16:12:19.661Z,47.90
2023-04-25T16:14:46.307Z,49.42
2023-04-25T16:17:12.940Z,50.02
2023-04-25T16:19:39.587Z,49.55
2023-04-25T16:22:06.301Z,51.40
2023-04-25T16:24:32.893Z,53.94
2023-04-25T16:26:59.558Z,57.09
2023-04-25T16:29:26.166Z,58.17
2023-04-25T16:31:52.930Z,57.75
2023-04-25T16:34:19.959Z,58.05
2023-04-25T16:36:46.631Z,57.33
2023-04-25T16:39:13.225Z,57.32
2023-04-25T16:41:39.833Z,57.34
2023-04-25T16:44:06.499Z,57.70
2023-04-25T16:46:33.236Z,58.53
2023-04-25T16:48:59.956Z,59.59
2023-04-25T16:51:26.945Z,60.29
2023-04-25T16:53:53.974Z,60.14
2023-04-25T16:56:20.780Z,60.41
2023-04-25T16:58:47.421Z,61.22
2023-04-25T17:01:14.052Z,62.06
2023-04-25T17:03:40.877Z,62.20
2023-04-25T17:06:07.657Z,62.11
2023-04-25T17:08:34.259Z,62.19
2023-04-25T17:11:01.351Z,63.02
2023-04-25T17:13:30.945Z,63.39
2023-04-25T17:15:58.380Z,63.76
2023-04-25T17:18:25.773Z,63.70
2023-04-25T17:20:52.634Z,65.22
2023-04-25T17:23:19.384Z,67.91
2023-04-25T17:25:46.079Z,66.30
2023-04-25T17:28:12.965Z,64.91
2023-04-25T17:30:39.956Z,64.94
2023-04-25T17:33:08.875Z,65.54
2023-04-25T17:35:35.576Z,65.49
2023-04-25T17:38:02.852Z,63.59
2023-04-25T17:40:29.523Z,65.35
2023-04-25T17:42:56.140Z,64.99
2023-04-25T17:45:22.931Z,64.63
2023-04-25T17:47:49.694Z,64.38
2023-04-25T17:50:16.366Z,66.50
2023-04-25T17:52:43.821Z,65.26
2023-04-25T17:55:11.047Z,65.07
2023-04-25T17:57:37.665Z,64.93
2023-04-25T18:00:06.017Z,65.45
2023-04-25T18:02:32.977Z,65.56
2023-04-25T18:04:59.984Z,65.32
2023-04-25T18:07:26.697Z,65.95
2023-04-25T18:09:53.399Z,66.30
2023-04-25T18:12:20.358Z,67.24
2023-04-25T18:14:49.473Z,67.48
2023-04-25T18:17:16.230Z,65.12
2023-04-25T18:19:42.952Z,66.26
2023-04-25T18:22:09.683Z,66.56
2023-04-25T18:24:36.360Z,68.28
2023-04-25T18:27:03.107Z,69.13
2023-04-25T18:29:33.774Z,68.98
2023-04-25T18:32:01.644Z,69.38
2023-04-25T18:34:28.377Z,70.09
2023-04-25T18:36:55.022Z,72.31
2023-04-25T18:39:23.118Z,71.58
2023-04-25T18:41:58.014Z,71.19
2023-04-25T18:44:26.580Z,72.79
2023-04-25T18:46:53.339Z,71.70
2023-04-25T18:49:19.977Z,72.80
2023-04-25T18:51:46.927Z,72.76
2023-04-25T18:54:13.592Z,73.31
2023-04-25T18:56:40.259Z,73.61
2023-04-25T18:59:07.258Z,72.76
2023-04-25T19:01:34.373Z,71.86
2023-04-25T19:04:02.270Z,73.30
2023-04-25T19:06:30.980Z,72.65
2023-04-25T19:08:57.635Z,74.67
2023-04-25T19:11:24.676Z,74.91
2023-04-25T19:13:51.849Z,72.79
2023-04-25T19:16:19.088Z,73.21
2023-04-25T19:18:46.469Z,73.90
2023-04-25T19:21:13.215Z,74.87
2023-04-25T19:23:40.150Z,74.70
2023-04-25T19:26:06.963Z,74.70
2023-04-25T19:28:33.888Z,76.28
2023-04-25T19:31:00.625Z,76.73
2023-04-25T19:33:27.356Z,76.79
2023-04-25T19:35:54.174Z,76.65
2023-04-25T19:38:23.554Z,77.96
2023-04-25T19:40:50.324Z,77.93
2023-04-25T19:43:17.216Z,77.77
2023-04-25T19:45:43.895Z,78.95
2023-04-25T19:48:10.567Z,77.34
2023-04-25T19:50:37.250Z,78.43
2023-04-25T19:53:03.913Z,78.54
2023-04-25T19:55:30.520Z,78.84
2023-04-25T19:57:57.129Z,79.28
2023-04-25T20:00:23.975Z,78.11
2023-04-25T20:02:50.785Z,78.68
2023-04-25T20:05:17.765Z,80.66
2023-04-25T20:07:44.431Z,81.24
2023-04-25T20:10:12.172Z,79.68
2023-04-25T20:12:42.000Z,80.32
2023-04-25T20:15:09.595Z,82.52
2023-04-25T20:17:36.253Z,82.06
2023-04-25T20:20:03.156Z,82.31
2023-04-25T20:22:30.151Z,81.04
2023-04-25T20:24:56.800Z,81.43
2023-04-25T20:27:23.434Z,81.81
2023-04-25T20:29:50.187Z,83.68
2023-04-25T20:32:16.841Z,81.51
2023-04-25T20:34:43.478Z,81.18
2023-04-25T20:37:10.149Z,82.38
2023-04-25T20:39:36.946Z,81.78
2023-04-25T20:42:03.718Z,79.77
2023-04-25T20:44:30.413Z,80.52
2023-04-25T20:46:57.073Z,81.34
2023-04-25T20:49:23.727Z,81.39
2023-04-25T20:51:50.401Z,83.02
2023-04-25T20:54:17.015Z,81.33
2023-04-25T20:56:43.660Z,82.05
2023-04-25T20:59:10.386Z,81.82
2023-04-25T21:01:37.237Z,80.83
2023-04-25T21:04:04.115Z,83.34
2023-04-25T21:06:30.874Z,84.17
2023-04-25T21:08:57.564Z,84.99
2023-04-25T21:11:24.422Z,84.66
2023-04-25T21:13:51.221Z,82.55
2023-04-25T21:16:17.884Z,82.15
2023-04-25T21:18:44.575Z,83.55
2023-04-25T21:21:11.457Z,82.03
2023-04-25T21:23:38.124Z,82.40
2023-04-25T21:26:04.842Z,84.19
2023-04-25T21:28:31.549Z,83.35
2023-04-25T21:30:58.438Z,84.44
2023-04-25T21:33:25.050Z,85.25
2023-04-25T21:35:52.033Z,85.49
2023-04-25T21:38:18.860Z,84.61
2023-04-25T21:40:45.512Z,85.07
2023-04-25T21:43:12.107Z,84.30
2023-04-25T21:45:56.944Z,84.11
2023-04-25T21:48:25.417Z,84.88
2023-04-25T21:50:52.033Z,84.72
2023-04-25T21:53:18.681Z,86.14
2023-04-25T21:55:45.412Z,84.58
2023-04-25T21:58:12.049Z,83.50
2023-04-25T22:00:38.754Z,84.11
2023-04-25T22:03:05.490Z,84.00
2023-04-25T22:05:32.202Z,85.37
2023-04-25T22:07:58.853Z,85.54
2023-04-25T22:10:26.064Z,85.29
2023-04-25T22:12:52.880Z,85.56
2023-04-25T22:15:21.501Z,85.77
2023-04-25T22:17:48.190Z,85.87
2023-04-25T22:20:14.870Z,85.73
2023-04-25T22:22:41.783Z,87.15
2023-04-25T22:25:08.977Z,87.01
2023-04-25T22:27:35.674Z,88.82
2023-04-25T22:30:02.304Z,88.49
2023-04-25T22:32:29.188Z,86.96
2023-04-25T22:34:55.964Z,86.40
2023-04-25T22:37:22.593Z,87.69
2023-04-25T22:39:49.234Z,88.83
2023-04-25T22:42:15.950Z,87.94
2023-04-25T22:44:42.557Z,87.97
2023-04-25T22:47:09.278Z,88.13
2023-04-25T22:49:35.922Z,88.89
2023-04-25T22:52:02.544Z,87.80
2023-04-25T22:54:29.174Z,88.37
2023-04-25T22:56:55.805Z,87.96
2023-04-25T22:59:22.446Z,90.40
2023-04-25T23:01:49.178Z,90.14
2023-04-25T23:04:16.073Z,89.76
2023-04-25T23:06:42.824Z,89.87
2023-04-25T23:09:09.420Z,89.75
2023-04-25T23:11:36.018Z,89.49
2023-04-25T23:14:02.664Z,88.34
2023-04-25T23:16:29.322Z,88.81
2023-04-25T23:18:55.959Z,90.08
2023-04-25T23:21:22.618Z,90.70
2023-04-25T23:23:49.379Z,89.02
2023-04-25T23:26:16.118Z,87.97
2023-04-25T23:28:42.777Z,88.42
2023-04-25T23:31:10.594Z,89.25
2023-04-25T23:33:37.522Z,90.31
2023-04-25T23:36:04.474Z,90.66
2023-04-25T23:38:32.144Z,92.30
2023-04-25T23:40:58.757Z,92.19
2023-04-25T23:43:25.379Z,91.09
2023-04-25T23:45:52.150Z,89.85
2023-04-25T23:48:18.805Z,89.25
2023-04-25T23:50:45.437Z,90.67
2023-04-25T23:53:12.144Z,89.61
2023-04-25T23:55:38.965Z,89.26
2023-04-25T23:58:05.660Z,88.95
